Time;durP1;ratioP1;P1;durP2;ratioP2;P2;SDS_P1;SDS_P2;PMS_P1;PMS_P2;Temp;Humidity;BMP_temperature;BMP_pressure;BME280_temperature;BME280_humidity;BME280_pressure;Samples;Min_cycle;Max_cycle;Signal;HPM_P1;HPM_P2
2021/12/02 00:01:14;;;;;;;3.05;1.08;;;17.40;67.80;;;;;;5072309;28;20035;-78
2021/12/02 00:03:40;;;;;;;3.45;1.02;;;17.40;67.90;;;;;;5072030;28;20016;-78
2021/12/02 00:06:09;;;;;;;3.25;1.23;;;17.40;67.90;;;;;;5072706;28;20031;-78
2021/12/02 00:08:35;;;;;;;3.50;1.35;;;17.40;67.90;;;;;;5072548;28;20421;-78
2021/12/02 00:11:01;;;;;;;2.80;1.08;;;17.30;67.80;;;;;;5071927;28;20150;-78
2021/12/02 00:13:29;;;;;;;3.50;1.10;;;17.30;67.80;;;;;;5072108;28;20052;-78
2021/12/02 00:16:05;;;;;;;5.78;1.40;;;17.30;67.80;;;;;;5071929;28;20035;-78
2021/12/02 00:21:23;;;;;;;2.15;0.77;;;17.20;67.60;;;;;;5071817;28;20055;-78
2021/12/02 00:24:06;;;;;;;2.90;1.13;;;17.20;67.70;;;;;;5071775;28;20017;-78
2021/12/02 00:26:37;;;;;;;2.45;0.80;;;17.20;67.60;;;;;;5071917;28;20032;-78
2021/12/02 00:29:06;;;;;;;4.20;1.33;;;17.20;67.70;;;;;;5071556;28;20028;-78
2021/12/02 00:31:35;;;;;;;2.25;1.02;;;17.20;67.60;;;;;;5071782;28;20040;-78
2021/12/02 00:34:07;;;;;;;5.55;1.42;;;17.10;67.60;;;;;;5071592;28;20043;-78
2021/12/02 00:36:34;;;;;;;3.05;1.00;;;17.10;67.60;;;;;;5071827;28;20030;-78
2021/12/02 00:39:07;;;;;;;2.38;0.75;;;17.10;67.50;;;;;;5071506;28;20028;-77
2021/12/02 00:41:32;;;;;;;2.63;1.00;;;17.10;67.60;;;;;;5071688;28;20044;-78
2021/12/02 00:43:58;;;;;;;2.60;0.98;;;17.00;67.50;;;;;;5071444;28;20020;-77
2021/12/02 00:46:27;;;;;;;3.47;0.77;;;17.00;67.50;;;;;;5071292;28;20043;-77
2021/12/02 00:48:53;;;;;;;2.90;1.33;;;17.00;67.50;;;;;;5071234;28;20455;-77
2021/12/02 00:51:20;;;;;;;3.10;0.95;;;17.00;67.50;;;;;;5071621;28;20021;-77
2021/12/02 00:53:52;;;;;;;4.72;1.00;;;17.00;67.50;;;;;;5071317;28;20376;-78
2021/12/02 00:56:22;;;;;;;1.85;0.70;;;17.00;67.50;;;;;;5071434;28;20017;-77
2021/12/02 00:58:48;;;;;;;4.05;0.90;;;16.90;67.50;;;;;;5071587;28;20446;-77
2021/12/02 01:01:19;;;;;;;2.65;1.10;;;16.90;67.40;;;;;;5071307;28;20091;-78
2021/12/02 01:03:47;;;;;;;2.80;1.00;;;16.90;67.40;;;;;;5071105;28;20389;-77
2021/12/02 01:06:12;;;;;;;3.40;0.70;;;16.90;67.50;;;;;;5070444;28;20130;-77
2021/12/02 01:08:40;;;;;;;3.20;0.88;;;16.90;67.40;;;;;;5071597;28;20138;-78
2021/12/02 01:11:07;;;;;;;2.75;0.73;;;16.80;67.30;;;;;;5071618;28;20123;-77
2021/12/02 01:13:33;;;;;;;3.83;0.95;;;16.80;67.20;;;;;;5071171;28;20024;-77
2021/12/02 01:15:59;;;;;;;1.73;0.68;;;16.80;67.30;;;;;;5071048;28;20356;-77
2021/12/02 01:18:25;;;;;;;3.10;0.80;;;16.80;67.30;;;;;;5053129;28;20504;-77
2021/12/02 01:20:52;;;;;;;4.13;0.90;;;16.80;67.20;;;;;;5070720;28;20117;-76
2021/12/02 01:23:21;;;;;;;2.47;0.80;;;16.80;67.10;;;;;;5071238;28;20024;-77
2021/12/02 01:26:08;;;;;;;4.10;1.10;;;16.80;67.00;;;;;;5070822;28;20104;-77
2021/12/02 01:28:35;;;;;;;1.75;0.75;;;16.80;67.00;;;;;;5071217;28;20027;-77
2021/12/02 01:31:01;;;;;;;2.30;0.82;;;16.80;67.00;;;;;;5052755;28;20019;-77
2021/12/02 01:33:28;;;;;;;2.08;0.73;;;16.80;67.00;;;;;;5071029;28;20028;-76
2021/12/02 01:36:02;;;;;;;2.67;0.73;;;16.80;67.00;;;;;;5070732;28;20025;-77
2021/12/02 01:38:30;;;;;;;4.40;1.02;;;16.80;67.00;;;;;;5071006;28;20016;-77
2021/12/02 01:40:57;;;;;;;3.30;1.15;;;16.80;67.00;;;;;;5070726;28;20032;-77
2021/12/02 01:43:41;;;;;;;2.63;0.80;;;16.80;66.90;;;;;;5070792;28;20025;-77
2021/12/02 01:46:07;;;;;;;3.50;1.02;;;16.80;66.90;;;;;;5071144;28;20043;-77
2021/12/02 01:48:35;;;;;;;3.10;0.80;;;16.80;66.80;;;;;;5070988;28;20025;-77
2021/12/02 01:51:06;;;;;;;3.67;0.70;;;16.80;66.80;;;;;;5052861;28;20417;-77
2021/12/02 01:53:38;;;;;;;5.03;0.80;;;16.80;66.70;;;;;;5070837;28;20484;-77
2021/12/02 01:56:16;;;;;;;2.15;0.80;;;16.80;66.60;;;;;;5070622;28;20024;-77
2021/12/02 01:58:50;;;;;;;2.40;0.70;;;16.80;66.60;;;;;;5052431;28;20649;-77
2021/12/02 02:01:25;;;;;;;4.00;0.80;;;16.80;66.50;;;;;;5070692;28;20033;-77
2021/12/02 02:03:52;;;;;;;3.90;0.90;;;16.80;66.50;;;;;;5070613;28;20479;-77
2021/12/02 02:06:27;;;;;;;3.85;1.13;;;16.80;66.40;;;;;;5070709;28;20040;-78
2021/12/02 02:08:56;;;;;;;1.90;0.55;;;16.80;66.40;;;;;;5070517;28;20082;-77
2021/12/02 02:11:24;;;;;;;2.75;0.65;;;16.80;66.30;;;;;;5070673;28;20082;-77
2021/12/02 02:13:50;;;;;;;2.72;0.80;;;16.80;66.30;;;;;;5052338;28;20029;-78
2021/12/02 02:16:16;;;;;;;2.30;0.60;;;16.80;67.00;;;;;;5070694;28;20146;-78
2021/12/02 02:18:42;;;;;;;1.77;0.60;;;16.80;66.20;;;;;;5055059;28;20173;-78
2021/12/02 02:21:14;;;;;;;2.63;0.75;;;16.80;66.20;;;;;;5074717;28;20043;-77
2021/12/02 02:23:46;;;;;;;2.13;0.73;;;16.80;66.10;;;;;;5074281;28;20020;-78
2021/12/02 02:26:12;;;;;;;3.63;1.10;;;16.80;66.00;;;;;;5074231;28;20031;-77
2021/12/02 02:28:38;;;;;;;2.05;0.90;;;16.80;66.00;;;;;;5074336;28;20480;-77
2021/12/02 02:31:04;;;;;;;3.33;0.90;;;16.80;65.90;;;;;;5073928;28;20032;-77
2021/12/02 02:33:36;;;;;;;3.60;1.23;;;16.80;65.90;;;;;;5074139;28;20500;-77
2021/12/02 02:36:04;;;;;;;2.35;1.13;;;16.80;65.90;;;;;;5073840;28;20500;-77
2021/12/02 02:38:30;;;;;;;4.10;0.90;;;16.80;65.90;;;;;;5074060;28;20020;-77
2021/12/02 02:40:57;;;;;;;3.17;0.63;;;16.80;65.80;;;;;;5073698;28;20077;-77
2021/12/02 02:43:25;;;;;;;4.22;0.77;;;16.80;65.80;;;;;;5073999;28;20033;-77
2021/12/02 02:45:51;;;;;;;2.53;0.77;;;16.80;65.70;;;;;;5055413;28;20029;-77
2021/12/02 02:48:17;;;;;;;3.28;0.70;;;16.80;65.60;;;;;;5073706;28;20028;-77
2021/12/02 02:50:42;;;;;;;2.70;0.73;;;16.80;65.60;;;;;;5073519;28;20034;-77
2021/12/02 02:53:17;;;;;;;4.32;1.00;;;16.80;65.60;;;;;;5074149;28;20542;-77
2021/12/02 02:55:50;;;;;;;3.22;1.02;;;16.80;65.50;;;;;;5073358;28;20059;-77
2021/12/02 03:01:02;;;;;;;2.80;0.70;;;16.80;65.50;;;;;;5073087;28;20397;-76
2021/12/02 03:03:46;;;;;;;2.67;0.63;;;16.80;65.50;;;;;;5073516;28;20052;-77
2021/12/02 03:06:30;;;;;;;1.80;0.60;;;16.80;65.30;;;;;;5073713;28;20035;-77
2021/12/02 03:11:53;;;;;;;2.70;0.63;;;16.80;65.30;;;;;;5053675;28;20028;-77
2021/12/02 03:14:27;;;;;;;2.97;1.05;;;16.80;65.30;;;;;;5073304;28;20472;-77
2021/12/02 03:16:53;;;;;;;0.88;0.35;;;16.80;65.20;;;;;;5073046;28;20024;-78
2021/12/02 03:19:24;;;;;;;3.22;0.65;;;16.80;65.20;;;;;;5073215;28;20100;-78
2021/12/02 03:21:50;;;;;;;2.42;0.80;;;16.80;65.10;;;;;;5073033;28;20099;-78
2021/12/02 03:24:16;;;;;;;3.08;0.70;;;16.80;65.00;;;;;;5073067;28;20440;-77
2021/12/02 03:26:41;;;;;;;3.08;0.75;;;16.80;65.00;;;;;;5072859;28;20036;-77
2021/12/02 03:29:07;;;;;;;2.33;0.60;;;16.80;64.90;;;;;;5072463;28;20020;-77
2021/12/02 03:31:34;;;;;;;2.85;0.65;;;16.80;65.00;;;;;;5073013;28;20111;-77
2021/12/02 03:34:00;;;;;;;1.45;0.60;;;16.80;64.90;;;;;;5072777;28;20595;-78
2021/12/02 03:36:27;;;;;;;1.48;0.55;;;16.80;64.90;;;;;;5072727;28;20029;-77
2021/12/02 03:38:53;;;;;;;2.28;0.60;;;16.80;64.80;;;;;;5072626;28;20062;-77
2021/12/02 03:41:20;;;;;;;3.33;0.60;;;16.80;64.80;;;;;;5072736;28;20496;-77
2021/12/02 03:43:47;;;;;;;1.92;0.75;;;16.90;64.90;;;;;;5072495;28;20021;-77
2021/12/02 03:46:18;;;;;;;4.05;0.95;;;16.80;64.70;;;;;;5072607;28;20044;-77
2021/12/02 03:48:44;;;;;;;2.50;0.75;;;16.90;64.80;;;;;;5072516;28;20024;-77
2021/12/02 03:51:11;;;;;;;2.92;0.70;;;16.90;64.70;;;;;;5054797;28;20131;-78
2021/12/02 03:53:37;;;;;;;2.15;0.50;;;16.90;64.60;;;;;;5072887;28;20030;-77
2021/12/02 03:56:06;;;;;;;2.20;0.70;;;16.90;64.60;;;;;;5072295;28;20024;-77
2021/12/02 03:58:33;;;;;;;3.08;0.70;;;16.90;64.60;;;;;;5072473;28;20077;-77
2021/12/02 04:00:58;;;;;;;3.10;0.88;;;16.90;64.50;;;;;;5072015;28;20033;-78
2021/12/02 04:03:24;;;;;;;1.83;0.50;;;16.90;64.40;;;;;;5072222;28;20114;-78
2021/12/02 04:05:52;;;;;;;2.63;0.65;;;16.90;64.40;;;;;;5072074;28;20020;-78
2021/12/02 04:08:18;;;;;;;1.50;0.40;;;16.90;64.40;;;;;;5072318;28;20020;-78
2021/12/02 04:10:45;;;;;;;3.47;0.57;;;16.90;64.40;;;;;;5071888;28;20032;-78
2021/12/02 04:15:39;;;;;;;2.20;0.63;;;16.90;64.30;;;;;;5072522;28;20036;-77
2021/12/02 04:18:05;;;;;;;2.78;0.50;;;16.90;64.30;;;;;;5072343;28;20017;-77
2021/12/02 04:20:31;;;;;;;2.72;0.80;;;16.90;64.30;;;;;;5071955;28;20120;-77
2021/12/02 04:22:58;;;;;;;3.88;0.57;;;16.90;64.30;;;;;;5071619;28;20028;-77
2021/12/02 04:25:24;;;;;;;2.92;0.70;;;16.90;64.10;;;;;;5072133;28;20024;-77
2021/12/02 04:27:51;;;;;;;1.92;0.60;;;16.90;64.10;;;;;;5071708;28;20108;-78
2021/12/02 04:30:24;;;;;;;2.47;0.60;;;16.90;64.10;;;;;;5071766;28;20484;-77
2021/12/02 04:32:50;;;;;;;1.95;0.70;;;16.90;64.10;;;;;;5071571;28;20598;-78
2021/12/02 04:35:16;;;;;;;3.42;0.68;;;16.90;64.00;;;;;;5071790;28;20053;-78
2021/12/02 04:37:44;;;;;;;3.70;0.75;;;16.90;63.90;;;;;;5071508;28;20111;-76
2021/12/02 04:40:11;;;;;;;2.28;0.50;;;16.90;63.90;;;;;;5071885;28;20031;-78
2021/12/02 04:42:37;;;;;;;3.03;0.60;;;16.90;63.90;;;;;;5072030;28;20388;-77
2021/12/02 04:45:04;;;;;;;3.05;0.80;;;16.90;63.90;;;;;;5071497;28;20442;-78
2021/12/02 04:47:30;;;;;;;1.75;0.70;;;16.90;63.80;;;;;;5071509;28;20097;-78
2021/12/02 04:49:55;;;;;;;1.55;0.60;;;16.90;63.70;;;;;;5053267;28;20067;-78
2021/12/02 04:52:21;;;;;;;2.78;0.75;;;16.90;63.70;;;;;;5071548;28;20062;-77
2021/12/02 04:54:47;;;;;;;2.75;0.90;;;16.90;63.70;;;;;;5071328;28;20457;-77
2021/12/02 04:57:12;;;;;;;2.38;0.57;;;16.90;63.70;;;;;;5071359;28;20536;-78
2021/12/02 04:59:38;;;;;;;2.65;0.80;;;16.90;63.70;;;;;;5071716;28;20107;-78
2021/12/02 05:02:03;;;;;;;2.20;0.75;;;16.90;63.70;;;;;;5071128;28;20485;-77
2021/12/02 05:04:29;;;;;;;2.08;0.50;;;17.00;63.70;;;;;;5071367;28;20112;-77
2021/12/02 05:06:55;;;;;;;2.58;0.73;;;16.90;63.60;;;;;;5071043;28;20396;-77
2021/12/02 05:09:21;;;;;;;2.35;0.73;;;17.00;63.60;;;;;;5071411;28;20016;-77
2021/12/02 05:11:46;;;;;;;2.33;0.70;;;17.00;63.50;;;;;;5071089;28;20055;-77
2021/12/02 05:14:12;;;;;;;3.35;0.90;;;17.00;63.60;;;;;;5071257;28;20107;-77
2021/12/02 05:16:39;;;;;;;4.47;0.75;;;16.90;63.50;;;;;;5071542;28;20032;-77
2021/12/02 05:19:05;;;;;;;2.92;0.63;;;17.00;63.70;;;;;;5071308;28;20065;-77
2021/12/02 05:21:31;;;;;;;3.08;0.93;;;17.00;63.70;;;;;;5070949;28;20045;-77
2021/12/02 05:23:56;;;;;;;2.35;0.60;;;17.00;63.70;;;;;;5070952;28;20025;-77
2021/12/02 05:26:23;;;;;;;2.53;0.70;;;16.90;63.60;;;;;;5071189;28;20028;-77
2021/12/02 05:28:50;;;;;;;2.13;0.55;;;16.90;63.60;;;;;;5070891;28;20058;-78
2021/12/02 05:31:16;;;;;;;1.50;0.50;;;16.90;63.60;;;;;;5071150;28;20104;-77
2021/12/02 05:33:42;;;;;;;3.65;0.85;;;16.90;63.50;;;;;;5070857;28;20103;-77
2021/12/02 05:36:08;;;;;;;1.88;0.68;;;16.90;63.50;;;;;;5071349;28;20020;-78
2021/12/02 05:38:34;;;;;;;2.63;1.00;;;16.90;63.50;;;;;;5071041;28;20400;-78
2021/12/02 05:41:00;;;;;;;1.35;0.60;;;16.90;63.50;;;;;;5070695;28;20071;-77
2021/12/02 05:43:26;;;;;;;3.03;0.68;;;16.90;63.40;;;;;;5070985;28;20469;-78
2021/12/02 05:45:52;;;;;;;3.47;0.80;;;17.00;63.40;;;;;;5070460;28;20054;-78
2021/12/02 05:48:18;;;;;;;2.28;1.02;;;17.00;63.30;;;;;;5052839;28;20108;-77
2021/12/02 05:50:44;;;;;;;3.35;0.70;;;17.00;63.20;;;;;;5070635;28;20040;-77
2021/12/02 05:53:09;;;;;;;3.53;0.90;;;17.00;63.20;;;;;;5072900;28;20020;-77
2021/12/02 05:55:35;;;;;;;2.70;0.60;;;17.00;63.10;;;;;;5075219;28;20120;-77
2021/12/02 05:58:01;;;;;;;2.05;0.77;;;17.00;63.10;;;;;;5074485;28;20031;-77
2021/12/02 06:00:26;;;;;;;2.00;0.73;;;17.00;63.00;;;;;;5074721;28;20537;-77
2021/12/02 06:02:52;;;;;;;5.40;1.70;;;17.00;63.00;;;;;;5074365;28;20138;-78
2021/12/02 06:05:20;;;;;;;4.38;1.10;;;17.00;63.00;;;;;;5074794;28;20099;-77
2021/12/02 06:07:49;;;;;;;2.65;0.50;;;17.00;62.80;;;;;;5074413;28;20013;-78
2021/12/02 06:10:16;;;;;;;3.03;0.60;;;17.10;62.90;;;;;;5073863;28;20032;-77
2021/12/02 06:12:42;;;;;;;2.50;0.70;;;17.00;62.80;;;;;;5073914;28;20020;-78
2021/12/02 06:15:08;;;;;;;2.00;0.50;;;17.10;62.80;;;;;;5074817;28;20031;-78
2021/12/02 06:17:36;;;;;;;3.58;0.57;;;17.10;62.70;;;;;;5074286;28;20013;-77
2021/12/02 06:20:02;;;;;;;2.10;0.85;;;17.10;62.60;;;;;;5074115;28;20063;-78
2021/12/02 06:22:28;;;;;;;3.40;0.77;;;17.10;63.30;;;;;;5074409;28;20055;-77
2021/12/02 06:27:31;;;;;;;1.75;0.50;;;17.10;62.50;;;;;;5076632;28;20382;-79
2021/12/02 06:29:57;;;;;;;2.65;0.60;;;17.20;62.50;;;;;;5086991;28;20075;-78
2021/12/02 06:32:23;;;;;;;3.30;0.50;;;17.20;62.50;;;;;;5074187;28;20036;-78
2021/12/02 06:34:48;;;;;;;2.17;0.80;;;17.20;62.50;;;;;;5073804;28;20476;-79
2021/12/02 06:37:14;;;;;;;3.00;0.73;;;17.20;62.40;;;;;;5073950;28;20036;-78
2021/12/02 06:39:39;;;;;;;2.10;0.60;;;17.20;62.40;;;;;;5056326;28;20032;-79
2021/12/02 06:42:05;;;;;;;2.30;0.57;;;17.20;62.40;;;;;;5074029;28;20039;-79
2021/12/02 06:44:32;;;;;;;2.90;0.85;;;17.20;62.30;;;;;;5091040;28;20028;-79
2021/12/02 06:46:58;;;;;;;6.07;0.82;;;17.30;62.50;;;;;;5086020;28;20500;-79
2021/12/02 06:49:24;;;;;;;2.83;0.73;;;17.30;62.60;;;;;;5102987;28;20029;-81
2021/12/02 06:51:50;;;;;;;3.70;0.80;;;17.30;62.90;;;;;;5085151;28;20852;-80
2021/12/02 06:54:15;;;;;;;3.08;0.60;;;17.30;63.00;;;;;;5087997;28;20044;-80
2021/12/02 06:56:41;;;;;;;2.95;0.70;;;17.30;64.00;;;;;;5072901;28;20024;-83
2021/12/02 06:59:07;;;;;;;5.00;0.70;;;17.40;63.40;;;;;;5065124;28;20028;-84
2021/12/02 07:01:34;;;;;;;2.88;0.82;;;17.40;63.70;;;;;;5088518;28;20062;-83
2021/12/02 07:04:00;;;;;;;6.15;0.95;;;17.40;63.60;;;;;;5092140;28;20031;-79
2021/12/02 07:06:25;;;;;;;5.20;1.17;;;17.40;63.40;;;;;;5093738;28;20016;-81
2021/12/02 07:08:51;;;;;;;7.03;0.90;;;17.40;63.10;;;;;;5082399;28;20055;-78
2021/12/02 07:11:17;;;;;;;3.97;1.00;;;17.40;62.60;;;;;;5078915;28;20047;-79
2021/12/02 07:13:42;;;;;;;6.35;0.80;;;17.50;62.50;;;;;;5079588;28;20096;-79
2021/12/02 07:16:08;;;;;;;5.35;1.35;;;17.50;62.60;;;;;;5093829;28;20020;-78
2021/12/02 07:18:41;;;;;;;4.75;0.82;;;17.50;62.90;;;;;;5083367;28;20036;-81
2021/12/02 07:21:07;;;;;;;4.10;1.05;;;17.50;62.80;;;;;;5073538;28;20170;-79
2021/12/02 07:23:32;;;;;;;2.28;0.73;;;17.50;62.70;;;;;;5073089;28;20060;-79
2021/12/02 07:25:59;;;;;;;6.13;1.30;;;17.50;62.60;;;;;;5071842;28;20485;-78
2021/12/02 07:28:25;;;;;;;8.13;1.38;;;17.50;62.50;;;;;;5072207;28;20028;-78
2021/12/02 07:30:52;;;;;;;8.10;1.20;;;17.50;62.40;;;;;;5071944;28;20483;-78
2021/12/02 07:33:19;;;;;;;3.60;1.05;;;17.50;62.20;;;;;;5072898;28;20504;-78
2021/12/02 07:35:44;;;;;;;9.80;1.30;;;17.40;61.70;;;;;;5072269;28;20054;-78
2021/12/02 07:38:10;;;;;;;5.25;0.90;;;17.40;61.70;;;;;;5071763;28;20036;-78
2021/12/02 07:40:38;;;;;;;4.75;1.27;;;17.40;61.10;;;;;;5072262;28;20040;-78
2021/12/02 07:43:04;;;;;;;7.25;1.55;;;17.40;60.80;;;;;;5072587;28;20028;-79
2021/12/02 07:45:34;;;;;;;6.25;1.20;;;17.40;60.70;;;;;;5072501;28;20028;-77
2021/12/02 07:48:01;;;;;;;7.13;1.10;;;17.40;60.50;;;;;;5071323;28;20519;-78
2021/12/02 07:50:27;;;;;;;5.38;1.13;;;17.40;60.40;;;;;;5072733;28;20024;-78
2021/12/02 07:52:58;;;;;;;7.25;1.27;;;17.40;60.30;;;;;;5071114;28;20047;-78
2021/12/02 07:55:24;;;;;;;5.30;1.00;;;17.40;60.20;;;;;;5069539;28;20130;-79
2021/12/02 07:57:51;;;;;;;4.30;1.05;;;17.30;60.20;;;;;;5071152;28;20039;-78
2021/12/02 08:00:23;;;;;;;9.63;1.52;;;17.30;60.90;;;;;;5070826;28;20037;-78
2021/12/02 08:02:51;;;;;;;5.75;1.20;;;17.30;61.30;;;;;;5068192;28;20017;-78
2021/12/02 08:05:18;;;;;;;6.03;1.10;;;17.30;61.30;;;;;;5070777;28;20369;-79
2021/12/02 08:07:44;;;;;;;5.95;1.27;;;17.30;61.30;;;;;;5070280;28;20012;-79
2021/12/02 08:10:12;;;;;;;4.13;1.05;;;17.30;61.40;;;;;;5070810;28;20031;-78
2021/12/02 08:12:40;;;;;;;6.35;1.10;;;17.30;61.20;;;;;;5070864;28;20618;-78
2021/12/02 08:15:07;;;;;;;5.05;1.67;;;17.30;61.10;;;;;;5070305;28;20015;-79
2021/12/02 08:17:33;;;;;;;4.32;1.00;;;17.30;60.90;;;;;;5071315;28;20029;-80
2021/12/02 08:19:59;;;;;;;2.05;0.73;;;17.30;60.90;;;;;;5070678;28;20035;-80
2021/12/02 08:22:25;;;;;;;4.38;1.17;;;17.30;60.90;;;;;;5071025;28;20036;-79
2021/12/02 08:24:50;;;;;;;8.18;1.20;;;17.20;60.80;;;;;;5071253;28;20017;-79
2021/12/02 08:27:16;;;;;;;3.95;1.33;;;17.20;60.50;;;;;;5070884;28;20120;-79
2021/12/02 08:29:42;;;;;;;4.65;0.90;;;17.20;60.50;;;;;;5053888;28;20435;-79
2021/12/02 08:32:08;;;;;;;8.02;0.93;;;17.20;60.40;;;;;;5071907;28;20025;-80
2021/12/02 08:34:34;;;;;;;6.10;1.73;;;17.20;60.30;;;;;;5071765;28;20029;-79
2021/12/02 08:37:00;;;;;;;5.47;1.02;;;17.20;60.20;;;;;;5071505;28;20032;-79
2021/12/02 08:39:30;;;;;;;5.85;1.33;;;17.20;60.20;;;;;;5071688;28;20099;-79
2021/12/02 08:41:57;;;;;;;3.90;1.17;;;17.20;60.30;;;;;;5071495;28;20032;-80
2021/12/02 08:44:29;;;;;;;2.67;0.80;;;17.20;60.30;;;;;;5071046;28;20029;-79
2021/12/02 08:46:55;;;;;;;3.45;0.90;;;17.20;60.20;;;;;;5070371;28;20036;-79
2021/12/02 08:49:21;;;;;;;5.88;1.23;;;17.20;60.20;;;;;;5071762;28;20032;-80
2021/12/02 08:51:47;;;;;;;4.03;1.10;;;17.20;60.10;;;;;;5071056;28;20078;-80
2021/12/02 08:54:13;;;;;;;4.63;0.80;;;17.20;60.10;;;;;;5071629;28;20028;-80
2021/12/02 08:56:40;;;;;;;3.08;1.00;;;17.20;60.00;;;;;;5071853;28;20021;-77
2021/12/02 08:59:06;;;;;;;3.85;0.80;;;17.10;60.00;;;;;;5071743;28;20025;-79
2021/12/02 09:01:33;;;;;;;4.05;0.90;;;17.10;60.00;;;;;;5069652;28;20662;-79
2021/12/02 09:04:01;;;;;;;3.50;0.80;;;17.10;60.00;;;;;;5069440;28;20021;-79
2021/12/02 09:06:28;;;;;;;5.22;1.02;;;17.20;60.00;;;;;;5069500;28;20025;-79
2021/12/02 09:08:54;;;;;;;5.00;0.85;;;17.10;60.00;;;;;;5070130;28;20059;-79
2021/12/02 09:11:21;;;;;;;4.15;1.27;;;17.10;60.00;;;;;;5071394;28;20038;-79
2021/12/02 09:13:47;;;;;;;3.58;1.00;;;17.10;60.00;;;;;;5070623;28;20575;-79
2021/12/02 09:16:13;;;;;;;4.32;1.08;;;17.10;59.90;;;;;;5071215;28;20199;-79
2021/12/02 09:18:39;;;;;;;4.68;1.23;;;17.10;60.00;;;;;;5070245;28;20051;-79
2021/12/02 09:21:05;;;;;;;3.60;0.88;;;17.10;60.00;;;;;;5069604;28;20124;-79
2021/12/02 09:23:31;;;;;;;3.08;0.80;;;17.10;59.90;;;;;;5070650;28;20025;-79
2021/12/02 09:25:58;;;;;;;4.00;0.75;;;17.10;59.90;;;;;;5070917;28;20447;-79
2021/12/02 09:28:24;;;;;;;2.80;0.60;;;17.10;60.50;;;;;;5069304;28;20025;-78
2021/12/02 09:30:50;;;;;;;3.60;0.60;;;17.10;59.80;;;;;;5069268;28;20039;-79
2021/12/02 09:33:16;;;;;;;4.63;0.77;;;17.10;59.80;;;;;;5070919;28;20017;-79
2021/12/02 09:35:41;;;;;;;4.05;0.65;;;17.10;59.80;;;;;;5070873;28;20028;-79
2021/12/02 09:38:08;;;;;;;3.28;0.65;;;17.10;59.80;;;;;;5070591;28;20127;-79
2021/12/02 09:40:34;;;;;;;3.13;0.90;;;17.10;59.80;;;;;;5070420;28;20041;-79
2021/12/02 09:43:00;;;;;;;3.25;0.93;;;17.10;59.70;;;;;;5070906;28;20453;-79
2021/12/02 09:45:26;;;;;;;3.88;1.13;;;17.10;59.70;;;;;;5070684;28;20033;-79
2021/12/02 09:47:52;;;;;;;3.60;0.70;;;17.10;59.70;;;;;;5070577;28;20032;-79
2021/12/02 09:50:26;;;;;;;2.88;1.27;;;17.10;59.70;;;;;;5070967;28;20067;-79
2021/12/02 09:52:53;;;;;;;3.28;1.05;;;17.10;59.70;;;;;;5070204;28;20020;-79
2021/12/02 09:55:30;;;;;;;2.20;0.70;;;17.10;59.80;;;;;;5070949;28;20480;-79
2021/12/02 09:57:58;;;;;;;1.98;0.65;;;17.10;59.70;;;;;;5070567;28;20031;-79
2021/12/02 10:00:48;;;;;;;1.85;0.68;;;17.10;59.70;;;;;;5070292;28;20412;-79
2021/12/02 10:03:23;;;;;;;3.70;0.95;;;17.10;59.70;;;;;;5070470;28;20048;-79
2021/12/02 10:06:21;;;;;;;7.40;1.05;;;17.00;59.70;;;;;;5069943;28;20019;-79
2021/12/02 10:08:56;;;;;;;3.13;0.73;;;17.10;59.70;;;;;;5059576;28;20074;-81
2021/12/02 10:11:29;;;;;;;;;;;17.00;59.70;;;;;;5071150;28;20059;-80
2021/12/02 10:14:09;;;;;;;4.13;0.70;;;17.00;59.90;;;;;;5051602;28;19916;-79
2021/12/02 10:16:39;;;;;;;3.53;0.80;;;17.00;59.80;;;;;;5067400;28;20085;-79
2021/12/02 10:19:12;;;;;;;2.65;0.70;;;17.00;59.90;;;;;;5050619;28;20020;-79
2021/12/02 10:21:55;;;;;;;3.38;1.50;;;17.00;59.80;;;;;;5069839;28;20024;-79
2021/12/02 10:24:26;;;;;;;3.25;0.73;;;17.00;59.80;;;;;;5070685;28;20020;-80
2021/12/02 10:27:02;;;;;;;3.70;0.73;;;17.00;59.90;;;;;;5068142;28;20032;-79
2021/12/02 10:29:31;;;;;;;2.38;0.82;;;17.00;59.90;;;;;;5069564;28;20043;-80
2021/12/02 10:32:11;;;;;;;3.83;1.02;;;17.00;59.90;;;;;;5068934;28;20028;-80
2021/12/02 10:34:47;;;;;;;2.80;0.82;;;17.00;59.90;;;;;;5068342;28;20027;-79
2021/12/02 10:37:13;;;;;;;5.60;0.85;;;17.00;59.90;;;;;;5069685;28;20066;-79
2021/12/02 10:39:39;;;;;;;3.58;1.05;;;17.00;59.90;;;;;;5056754;28;20017;-79
2021/12/02 10:42:07;;;;;;;2.25;0.73;;;17.00;59.90;;;;;;5073713;28;20089;-79
2021/12/02 10:44:34;;;;;;;4.00;0.80;;;16.90;59.90;;;;;;5073953;28;20508;-80
2021/12/02 10:47:14;;;;;;;2.78;0.70;;;16.90;59.90;;;;;;5073114;28;20123;-79
2021/12/02 10:49:42;;;;;;;5.13;0.70;;;16.90;59.90;;;;;;5073630;28;20072;-79
2021/12/02 10:52:36;;;;;;;3.97;0.75;;;16.90;59.90;;;;;;5074120;28;20056;-79
2021/12/02 10:55:08;;;;;;;4.03;0.85;;;16.90;59.90;;;;;;5072983;28;20036;-79
2021/12/02 10:57:37;;;;;;;2.67;0.70;;;16.90;60.60;;;;;;5073674;28;20036;-79
2021/12/02 11:00:08;;;;;;;4.45;0.80;;;16.90;59.90;;;;;;5073319;28;20097;-79
2021/12/02 11:02:42;;;;;;;2.25;0.75;;;16.90;60.60;;;;;;5073062;28;20067;-79
2021/12/02 11:05:10;;;;;;;2.85;0.70;;;16.90;59.90;;;;;;5069333;28;20024;-78
2021/12/02 11:07:39;;;;;;;3.97;0.98;;;16.90;59.90;;;;;;5073262;28;20021;-79
2021/12/02 11:10:11;;;;;;;4.85;1.15;;;16.80;59.30;;;;;;5073840;28;20081;-80
2021/12/02 11:12:42;;;;;;;3.28;0.85;;;16.80;59.80;;;;;;5073913;28;20184;-80
2021/12/02 11:15:12;;;;;;;3.20;1.05;;;16.90;59.90;;;;;;5063397;28;20485;-79
2021/12/02 11:17:53;;;;;;;5.50;1.55;;;16.90;59.80;;;;;;5073640;28;20029;-80
2021/12/02 11:20:41;;;;;;;3.72;0.80;;;16.90;59.80;;;;;;5073294;28;20043;-82
2021/12/02 11:23:10;;;;;;;9.75;1.63;;;17.00;59.80;;;;;;5072222;28;20024;-80
2021/12/02 11:25:49;;;;;;;6.70;0.90;;;17.10;59.90;;;;;;5073476;28;20107;-80
2021/12/02 11:28:15;;;;;;;4.82;0.82;;;17.20;59.70;;;;;;5072410;28;20426;-80
2021/12/02 11:30:41;;;;;;;5.45;1.40;;;17.70;58.70;;;;;;5059887;28;20033;-79
2021/12/02 11:33:09;;;;;;;2.95;0.50;;;17.80;58.70;;;;;;5072956;28;20075;-80
2021/12/02 11:35:44;;;;;;;5.63;0.68;;;17.70;58.90;;;;;;5065228;28;20028;-79
2021/12/02 11:38:19;;;;;;;4.03;0.80;;;17.60;59.00;;;;;;5072537;28;20037;-79
2021/12/02 11:40:46;;;;;;;2.53;0.70;;;17.60;59.20;;;;;;5071409;28;20033;-80
2021/12/02 11:43:16;;;;;;;2.45;0.70;;;17.60;59.20;;;;;;5072521;28;20039;-80
2021/12/02 11:45:46;;;;;;;3.22;0.90;;;17.60;59.00;;;;;;5072650;28;20027;-80
2021/12/02 11:48:18;;;;;;;2.90;0.80;;;17.80;59.70;;;;;;5054728;28;20036;-80
2021/12/02 11:50:44;;;;;;;1.77;0.60;;;18.50;58.40;;;;;;5073170;28;20025;-80
2021/12/02 11:53:11;;;;;;;4.28;0.80;;;19.70;55.50;;;;;;5073263;28;20381;-80
2021/12/02 11:55:42;;;;;;;3.83;0.88;;;19.70;54.70;;;;;;5073637;28;20025;-80
2021/12/02 11:58:08;;;;;;;3.90;1.50;;;19.30;55.70;;;;;;5071086;28;20030;-80
2021/12/02 12:00:35;;;;;;;4.20;1.20;;;19.00;56.70;;;;;;5071023;28;20063;-79
2021/12/02 12:03:11;;;;;;;6.68;1.45;;;18.80;57.30;;;;;;5070573;28;20437;-78
2021/12/02 12:05:58;;;;;;;3.35;1.00;;;18.70;57.60;;;;;;5069831;28;20025;-81
2021/12/02 12:08:36;;;;;;;2.60;1.10;;;18.70;57.90;;;;;;5070644;28;20037;-79
2021/12/02 12:11:27;;;;;;;3.08;0.80;;;18.60;58.00;;;;;;5070423;28;20052;-77
2021/12/02 12:14:05;;;;;;;2.72;0.73;;;18.60;58.00;;;;;;5069094;28;20057;-80
2021/12/02 12:16:35;;;;;;;5.35;1.00;;;18.60;58.20;;;;;;5071830;28;20051;-78
2021/12/02 12:19:18;;;;;;;2.28;0.75;;;18.60;58.20;;;;;;5070906;28;20091;-78
2021/12/02 12:21:55;;;;;;;1.67;0.70;;;18.70;58.30;;;;;;5054159;28;20443;-77
2021/12/02 12:24:37;;;;;;;5.45;0.80;;;18.60;58.10;;;;;;5071755;28;20023;-80
2021/12/02 12:27:11;;;;;;;4.07;0.80;;;18.60;58.10;;;;;;5071160;28;20377;-80
2021/12/02 12:29:36;;;;;;;5.60;0.75;;;18.60;58.30;;;;;;5072349;28;20013;-80
2021/12/02 12:32:15;;;;;;;4.95;0.75;;;18.60;58.50;;;;;;5071703;28;20036;-80
2021/12/02 12:34:51;;;;;;;3.55;1.02;;;18.60;58.30;;;;;;5071729;28;20486;-80
2021/12/02 12:37:23;;;;;;;2.72;0.70;;;18.60;58.50;;;;;;5053725;28;20024;-79
2021/12/02 12:40:15;;;;;;;4.07;0.52;;;18.50;58.60;;;;;;5053370;28;20448;-79
2021/12/02 12:43:12;;;;;;;3.63;0.47;;;18.50;58.60;;;;;;5071615;28;20031;-81
2021/12/02 12:45:42;;;;;;;2.75;0.60;;;18.50;58.70;;;;;;5071387;28;20491;-80
2021/12/02 12:48:27;;;;;;;2.97;0.68;;;18.40;58.70;;;;;;5071697;28;20033;-80
2021/12/02 12:50:53;;;;;;;1.87;0.60;;;18.30;58.70;;;;;;5071397;28;20024;-81
2021/12/02 12:53:32;;;;;;;3.47;1.17;;;18.30;58.80;;;;;;5071552;28;20794;-81
2021/12/02 12:55:57;;;;;;;2.10;0.90;;;18.30;58.80;;;;;;5069823;28;20494;-79
2021/12/02 12:58:29;;;;;;;3.15;1.05;;;18.20;58.90;;;;;;5071463;28;20024;-81
2021/12/02 13:01:04;;;;;;;2.67;0.70;;;18.20;58.90;;;;;;5071280;28;20050;-80
2021/12/02 13:03:40;;;;;;;2.42;0.82;;;18.20;58.90;;;;;;5071787;28;20074;-81
2021/12/02 13:06:17;;;;;;;4.10;0.57;;;18.10;58.70;;;;;;5071731;28;20549;-81
2021/12/02 13:08:47;;;;;;;2.67;0.85;;;18.10;58.70;;;;;;5071027;28;20483;-80
2021/12/02 13:11:18;;;;;;;2.60;0.80;;;18.10;58.70;;;;;;5071347;28;20059;-81